Time,TemperatureF,DewpointF,PressureIn,WindDirection,WindDirectionDegrees,WindSpeedMPH,WindSpeedGustMPH,Humidity,HourlyPrecipIn,Conditions,Clouds,dailyrainin,SolarRadiationWatts/m^2,SoftwareType,DateUTC
2013-10-01 00:00:00,51.0,48.8,30.01,WNW,294,0.0,0.0,92,0.00,,,0.00,0.00,VWS V14.01,2013-10-01 04:00:00,
2013-10-01 00:01:00,51.0,48.8,30.01,WNW,294,0.0,0.0,92,0.00,,,0.00,0.00,VWS V14.01,2013-10-01 04:01:00,
2013-10-01 00:06:00,50.8,48.6,30.01,WNW,294,0.0,0.0,92,0.00,,,0.00,0.00,VWS V14.01,2013-10-01 04:06:00,
2013-10-01 00:11:00,50.8,48.8,30.01,WNW,294,0.0,0.0,93,0.00,,,0.00,0.00,VWS V14.01,2013-10-01 04:11:00,
2013-10-01 00:15:00,50.8,48.8,30.00,WNW,294,0.0,0.0,93,0.00,,,0.00,0.00,VWS V14.01,2013-10-01 04:15:00,
2013-10-01 00:16:00,50.8,48.8,30.00,WNW,294,0.0,0.0,93,0.00,,,0.00,0.00,VWS V14.01,2013-10-01 04:16:00,
2013-10-01 00:21:00,50.7,48.8,30.00,WNW,294,0.0,0.0,93,0.00,,,0.00,0.00,VWS V14.01,2013-10-01 04:21:00,
2013-10-01 00:26:00,50.7,48.8,30.00,WNW,294,0.0,0.0,93,0.00,,,0.00,0.00,VWS V14.01,2013-10-01 04:26:00,
2013-10-01 00:30:00,50.5,48.6,30.01,WNW,294,0.0,0.0,93,0.00,,,0.00,0.00,VWS V14.01,2013-10-01 04:30:00,
2013-10-01 00:31:00,50.5,48.6,30.01,WNW,294,0.0,0.0,93,0.00,,,0.00,0.00,VWS V14.01,2013-10-01 04:31:00,
2013-10-01 00:36:00,50.4,48.5,30.01,WNW,294,0.0,0.0,93,0.00,,,0.00,0.00,VWS V14.01,2013-10-01 04:36:00,
2013-10-01 00:41:00,50.4,48.5,30.01,WNW,294,0.0,0.0,93,0.00,,,0.00,0.00,VWS V14.01,2013-10-01 04:41:00,
2013-10-01 00:45:00,50.4,48.5,30.00,WNW,294,0.0,0.0,93,0.00,,,0.00,0.00,VWS V14.01,2013-10-01 04:45:00,
2013-10-01 00:46:00,50.4,48.5,30.00,WNW,294,0.0,0.0,93,0.00,,,0.00,0.00,VWS V14.01,2013-10-01 04:46:00,
2013-10-01 00:51:00,50.4,48.5,30.00,WNW,294,0.0,0.0,93,0.00,,,0.00,0.00,VWS V14.01,2013-10-01 04:51:00,
2013-10-01 00:56:00,50.4,48.5,30.00,WNW,294,0.0,0.0,93,0.00,,,0.00,0.00,VWS V14.01,2013-10-01 04:56:00,
2013-10-01 01:00:00,50.2,48.3,30.00,WNW,294,0.0,0.0,93,0.00,,,0.00,0.00,VWS V14.01,2013-10-01 05:00:00,
2013-10-01 01:01:00,50.2,48.3,30.00,WNW,294,0.0,0.0,93,0.00,,,0.00,0.00,VWS V14.01,2013-10-01 05:01:00,
2013-10-01 01:06:00,50.2,48.3,30.00,WNW,294,0.0,0.0,93,0.00,,,0.00,0.00,VWS V14.01,2013-10-01 05:06:00,
2013-10-01 01:11:00,50.1,48.4,30.00,WNW,294,0.0,0.0,94,0.00,,,0.00,0.00,VWS V14.01,2013-10-01 05:11:00,
2013-10-01 01:15:00,50.1,48.4,30.01,WNW,294,0.0,0.0,94,0.00,,,0.00,0.00,VWS V14.01,2013-10-01 05:15:00,
2013-10-01 01:16:00,50.1,48.4,30.01,WNW,294,0.0,0.0,94,0.00,,,0.00,0.00,VWS V14.01,2013-10-01 05:16:00,
2013-10-01 01:21:00,50.1,48.4,30.01,WNW,294,0.0,0.0,94,0.00,,,0.00,0.00,VWS V14.01,2013-10-01 05:21:00,
2013-10-01 01:26:00,49.9,48.2,30.01,WNW,294,0.0,0.0,94,0.00,,,0.00,0.00,VWS V14.01,2013-10-01 05:26:00,
2013-10-01 01:30:00,49.9,48.2,30.01,WNW,294,0.0,0.0,94,0.00,,,0.00,0.00,VWS V14.01,2013-10-01 05:30:00,
2013-10-01 01:31:00,49.9,48.2,30.01,WNW,294,0.0,0.0,94,0.00,,,0.00,0.00,VWS V14.01,2013-10-01 05:31:00,
2013-10-01 01:36:00,49.9,48.2,30.01,WNW,294,0.0,0.0,94,0.00,,,0.00,0.00,VWS V14.01,2013-10-01 05:36:00,
2013-10-01 01:41:00,49.9,48.2,30.01,WNW,294,0.0,0.0,94,0.00,,,0.00,0.00,VWS V14.01,2013-10-01 05:41:00,
2013-10-01 01:45:00,49.8,48.2,30.01,WNW,294,0.0,0.0,94,0.00,,,0.00,0.00,VWS V14.01,2013-10-01 05:45:00,
2013-10-01 01:46:00,49.8,48.2,30.01,WNW,294,0.0,0.0,94,0.00,,,0.00,0.00,VWS V14.01,2013-10-01 05:46:00,
2013-10-01 01:51:00,49.8,48.2,30.01,WNW,294,0.0,0.0,94,0.00,,,0.00,0.00,VWS V14.01,2013-10-01 05:51:00,
2013-10-01 01:56:00,49.8,48.2,30.01,WNW,294,0.0,0.0,94,0.00,,,0.00,0.00,VWS V14.01,2013-10-01 05:56:00,
2013-10-01 02:00:00,49.9,48.2,30.01,WNW,294,0.0,0.0,94,0.00,,,0.00,0.00,VWS V14.01,2013-10-01 06:00:00,
2013-10-01 02:01:00,49.9,48.2,30.01,WNW,294,0.0,0.0,94,0.00,,,0.00,0.00,VWS V14.01,2013-10-01 06:01:00,
2013-10-01 02:06:00,49.8,48.2,30.01,WNW,294,0.0,0.0,94,0.00,,,0.00,0.00,VWS V14.01,2013-10-01 06:06:00,
2013-10-01 02:11:00,49.8,48.4,30.01,WNW,294,0.0,0.0,95,0.00,,,0.00,0.00,VWS V14.01,2013-10-01 06:11:00,
2013-10-01 02:15:00,49.8,48.4,30.01,WNW,294,0.0,0.0,95,0.00,,,0.00,0.00,VWS V14.01,2013-10-01 06:15:00,
2013-10-01 02:16:00,49.8,48.4,30.01,WNW,294,0.0,0.0,95,0.00,,,0.00,0.00,VWS V14.01,2013-10-01 06:16:00,
2013-10-01 02:22:00,49.8,48.4,30.01,WNW,294,0.0,0.0,95,0.00,,,0.00,0.00,VWS V14.01,2013-10-01 06:22:00,
2013-10-01 02:27:00,49.8,48.4,30.01,WNW,294,0.0,0.0,95,0.00,,,0.00,0.00,VWS V14.01,2013-10-01 06:27:00,
2013-10-01 02:30:00,49.6,48.2,30.01,WNW,294,0.0,0.0,95,0.00,,,0.00,0.00,VWS V14.01,2013-10-01 06:30:00,
2013-10-01 02:32:00,49.6,48.2,30.01,WNW,294,0.0,0.0,95,0.00,,,0.00,0.00,VWS V14.01,2013-10-01 06:32:00,
2013-10-01 02:37:00,49.6,48.2,30.01,WNW,294,0.0,0.0,95,0.00,,,0.00,0.00,VWS V14.01,2013-10-01 06:37:00,
2013-10-01 02:42:00,49.6,48.2,30.01,WNW,294,0.0,0.0,95,0.00,,,0.00,0.00,VWS V14.01,2013-10-01 06:42:00,
2013-10-01 02:45:00,49.8,48.4,30.00,WNW,294,0.0,0.0,95,0.00,,,0.00,0.00,VWS V14.01,2013-10-01 06:45:00,
2013-10-01 02:47:00,49.8,48.4,30.00,WNW,294,0.0,0.0,95,0.00,,,0.00,0.00,VWS V14.01,2013-10-01 06:47:00,
2013-10-01 02:52:00,49.8,48.4,30.00,WNW,294,0.0,0.0,95,0.00,,,0.00,0.00,VWS V14.01,2013-10-01 06:52:00,
2013-10-01 02:57:00,49.8,48.4,30.00,WNW,294,0.0,0.0,95,0.00,,,0.00,0.00,VWS V14.01,2013-10-01 06:57:00,
2013-10-01 03:00:00,49.9,48.5,30.00,WNW,294,0.0,0.0,95,0.00,,,0.00,0.00,VWS V14.01,2013-10-01 07:00:00,
2013-10-01 03:02:00,49.9,48.5,30.00,WNW,294,0.0,0.0,95,0.00,,,0.00,0.00,VWS V14.01,2013-10-01 07:02:00,
2013-10-01 03:07:00,50.1,48.7,30.00,WNW,294,0.0,0.0,95,0.00,,,0.00,0.00,VWS V14.01,2013-10-01 07:07:00,
2013-10-01 03:12:00,50.1,48.7,30.00,WNW,294,0.0,0.0,95,0.00,,,0.00,0.00,VWS V14.01,2013-10-01 07:12:00,
2013-10-01 03:15:00,50.1,48.7,30.00,WNW,294,0.0,0.0,95,0.00,,,0.00,0.00,VWS V14.01,2013-10-01 07:15:00,
2013-10-01 03:17:00,50.1,48.7,30.00,WNW,294,0.0,0.0,95,0.00,,,0.00,0.00,VWS V14.01,2013-10-01 07:17:00,
2013-10-01 03:22:00,50.1,48.7,30.00,WNW,294,0.0,0.0,95,0.00,,,0.00,0.00,VWS V14.01,2013-10-01 07:22:00,
2013-10-01 03:27:00,50.1,48.7,30.00,WNW,294,0.0,0.0,95,0.00,,,0.00,0.00,VWS V14.01,2013-10-01 07:27:00,
2013-10-01 03:30:00,50.1,48.7,30.00,WNW,294,0.0,0.0,95,0.00,,,0.00,0.00,VWS V14.01,2013-10-01 07:30:00,
2013-10-01 03:32:00,49.9,48.5,30.00,WNW,294,0.0,0.0,95,0.00,,,0.00,0.00,VWS V14.01,2013-10-01 07:32:00,
2013-10-01 03:37:00,49.9,48.5,30.00,WNW,294,0.0,0.0,95,0.00,,,0.00,0.00,VWS V14.01,2013-10-01 07:37:00,
2013-10-01 03:42:00,49.9,48.5,30.00,WNW,294,0.0,0.0,95,0.00,,,0.00,0.00,VWS V14.01,2013-10-01 07:42:00,
2013-10-01 03:45:00,49.9,48.5,30.00,WNW,294,0.0,0.0,95,0.00,,,0.00,0.00,VWS V14.01,2013-10-01 07:45:00,
2013-10-01 03:47:00,49.9,48.5,30.00,WNW,294,0.0,0.0,95,0.00,,,0.00,0.00,VWS V14.01,2013-10-01 07:47:00,
2013-10-01 03:52:00,49.8,48.4,30.00,WNW,294,0.0,0.0,95,0.00,,,0.00,0.00,VWS V14.01,2013-10-01 07:52:00,
2013-10-01 03:57:00,49.8,48.4,30.00,WNW,294,0.0,0.0,95,0.00,,,0.00,0.00,VWS V14.01,2013-10-01 07:57:00,
2013-10-01 04:00:00,49.8,48.4,30.00,WNW,294,0.0,0.0,95,0.00,,,0.00,0.00,VWS V14.01,2013-10-01 08:00:00,
2013-10-01 04:02:00,49.8,48.4,30.00,WNW,294,0.0,0.0,95,0.00,,,0.00,0.00,VWS V14.01,2013-10-01 08:02:00,
2013-10-01 04:07:00,49.6,48.2,30.00,WNW,294,0.0,0.0,95,0.00,,,0.00,0.00,VWS V14.01,2013-10-01 08:07:00,
2013-10-01 04:12:00,49.6,48.2,30.00,WNW,294,0.0,0.0,95,0.00,,,0.00,0.00,VWS V14.01,2013-10-01 08:12:00,
2013-10-01 04:15:00,49.6,48.2,30.00,WNW,294,0.0,0.0,95,0.00,,,0.00,0.00,VWS V14.01,2013-10-01 08:15:00,
2013-10-01 04:17:00,49.5,48.1,30.00,WNW,294,0.0,0.0,95,0.00,,,0.00,0.00,VWS V14.01,2013-10-01 08:17:00,
2013-10-01 04:22:00,49.5,48.1,30.00,WNW,294,0.0,0.0,95,0.00,,,0.00,0.00,VWS V14.01,2013-10-01 08:22:00,
2013-10-01 04:27:00,49.5,48.4,30.00,WNW,294,0.0,0.0,96,0.00,,,0.00,0.00,VWS V14.01,2013-10-01 08:27:00,
2013-10-01 04:30:00,49.5,48.4,29.99,WNW,294,0.0,0.0,96,0.00,,,0.00,0.00,VWS V14.01,2013-10-01 08:30:00,
2013-10-01 04:32:00,49.5,48.4,29.99,WNW,294,0.0,0.0,96,0.00,,,0.00,0.00,VWS V14.01,2013-10-01 08:32:00,
2013-10-01 04:37:00,49.5,48.4,29.99,WNW,294,0.0,0.0,96,0.00,,,0.00,0.00,VWS V14.01,2013-10-01 08:37:00,
2013-10-01 04:42:00,49.4,48.3,29.99,WNW,294,0.0,0.0,96,0.00,,,0.00,0.00,VWS V14.01,2013-10-01 08:42:00,
2013-10-01 04:45:00,49.4,48.3,29.99,WNW,294,0.0,0.0,96,0.00,,,0.00,0.00,VWS V14.01,2013-10-01 08:45:00,
2013-10-01 04:47:00,49.4,48.3,29.99,WNW,294,0.0,0.0,96,0.00,,,0.00,0.00,VWS V14.01,2013-10-01 08:47:00,
2013-10-01 04:52:00,49.2,48.1,29.99,WNW,294,0.0,0.0,96,0.00,,,0.00,0.00,VWS V14.01,2013-10-01 08:52:00,
2013-10-01 04:57:00,49.2,48.1,29.99,WNW,294,0.0,0.0,96,0.00,,,0.00,0.00,VWS V14.01,2013-10-01 08:57:00,
2013-10-01 05:00:00,49.2,48.1,30.00,WNW,294,0.0,0.0,96,0.00,,,0.00,0.00,VWS V14.01,2013-10-01 09:00:00,
2013-10-01 05:02:00,49.2,48.1,30.00,WNW,294,0.0,0.0,96,0.00,,,0.00,0.00,VWS V14.01,2013-10-01 09:02:00,
2013-10-01 05:08:00,49.1,48.0,30.00,WNW,294,0.0,0.0,96,0.00,,,0.00,0.00,VWS V14.01,2013-10-01 09:08:00,
2013-10-01 05:13:00,49.1,48.0,30.00,WNW,294,0.0,0.0,96,0.00,,,0.00,0.00,VWS V14.01,2013-10-01 09:13:00,
2013-10-01 05:15:00,49.1,48.0,30.00,WNW,294,0.0,0.0,96,0.00,,,0.00,0.00,VWS V14.01,2013-10-01 09:15:00,
2013-10-01 05:18:00,49.1,48.0,30.00,WNW,294,0.0,0.0,96,0.00,,,0.00,0.00,VWS V14.01,2013-10-01 09:18:00,
2013-10-01 05:23:00,49.1,48.0,30.00,WNW,294,0.0,0.0,96,0.00,,,0.00,0.00,VWS V14.01,2013-10-01 09:23:00,
2013-10-01 05:28:00,49.1,48.0,30.00,WNW,294,0.0,0.0,96,0.00,,,0.00,0.00,VWS V14.01,2013-10-01 09:28:00,
2013-10-01 05:30:00,48.9,47.8,30.01,WNW,294,0.0,0.0,96,0.00,,,0.00,0.00,VWS V14.01,2013-10-01 09:30:00,
2013-10-01 05:33:00,48.9,47.8,30.01,WNW,294,0.0,0.0,96,0.00,,,0.00,0.00,VWS V14.01,2013-10-01 09:33:00,
2013-10-01 05:38:00,48.9,47.8,30.01,WNW,294,0.0,0.0,96,0.00,,,0.00,0.00,VWS V14.01,2013-10-01 09:38:00,
2013-10-01 05:43:00,48.9,47.8,30.01,WNW,294,0.0,0.0,96,0.00,,,0.00,0.00,VWS V14.01,2013-10-01 09:43:00,
2013-10-01 05:45:00,48.9,47.8,30.01,WNW,294,0.0,0.0,96,0.00,,,0.00,0.00,VWS V14.01,2013-10-01 09:45:00,
2013-10-01 05:48:00,48.9,47.8,30.01,WNW,294,0.0,0.0,96,0.00,,,0.00,0.00,VWS V14.01,2013-10-01 09:48:00,
2013-10-01 05:53:00,48.9,47.8,30.01,WNW,294,0.0,0.0,96,0.00,,,0.00,0.00,VWS V14.01,2013-10-01 09:53:00,
2013-10-01 05:58:00,48.9,47.8,30.01,WNW,294,0.0,0.0,96,0.00,,,0.00,0.00,VWS V14.01,2013-10-01 09:58:00,
2013-10-01 06:00:00,48.8,47.7,30.01,WNW,294,0.0,0.0,96,0.00,,,0.00,0.00,VWS V14.01,2013-10-01 10:00:00,
2013-10-01 06:03:00,48.8,47.7,30.01,WNW,294,0.0,0.0,96,0.00,,,0.00,0.00,VWS V14.01,2013-10-01 10:03:00,
2013-10-01 06:08:00,48.8,47.7,30.01,WNW,294,0.0,0.0,96,0.00,,,0.00,0.00,VWS V14.01,2013-10-01 10:08:00,
2013-10-01 06:13:00,48.8,47.7,30.01,WNW,294,0.0,0.0,96,0.00,,,0.00,0.00,VWS V14.01,2013-10-01 10:13:00,
2013-10-01 06:15:00,48.8,47.7,30.01,WNW,294,0.0,0.0,96,0.00,,,0.00,0.00,VWS V14.01,2013-10-01 10:15:00,
2013-10-01 06:18:00,48.6,47.5,30.01,WNW,294,0.0,0.0,96,0.00,,,0.00,0.00,VWS V14.01,2013-10-01 10:18:00,
2013-10-01 06:23:00,48.5,47.4,30.01,WNW,294,0.0,0.0,96,0.00,,,0.00,0.00,VWS V14.01,2013-10-01 10:23:00,
2013-10-01 06:28:00,48.5,47.4,30.01,WNW,294,0.0,0.0,96,0.00,,,0.00,0.00,VWS V14.01,2013-10-01 10:28:00,
2013-10-01 06:30:00,48.5,47.4,30.02,WNW,294,0.0,0.0,96,0.00,,,0.00,0.00,VWS V14.01,2013-10-01 10:30:00,
2013-10-01 06:33:00,48.3,47.2,30.02,WNW,294,0.0,0.0,96,0.00,,,0.00,0.00,VWS V14.01,2013-10-01 10:33:00,
2013-10-01 06:38:00,48.3,47.2,30.02,WNW,294,0.0,0.0,96,0.00,,,0.00,0.00,VWS V14.01,2013-10-01 10:38:00,
2013-10-01 06:43:00,48.3,47.2,30.02,WNW,294,0.0,0.0,96,0.00,,,0.00,0.00,VWS V14.01,2013-10-01 10:43:00,
2013-10-01 06:45:00,48.3,47.2,30.02,WNW,294,0.0,0.0,96,0.00,,,0.00,0.00,VWS V14.01,2013-10-01 10:45:00,
2013-10-01 06:48:00,48.3,47.2,30.02,WNW,294,0.0,0.0,96,0.00,,,0.00,0.00,VWS V14.01,2013-10-01 10:48:00,
2013-10-01 06:53:00,48.3,47.2,30.02,WNW,294,0.0,0.0,96,0.00,,,0.00,0.00,VWS V14.01,2013-10-01 10:53:00,
2013-10-01 06:58:00,48.3,47.2,30.02,WNW,294,0.0,0.0,96,0.00,,,0.00,0.00,VWS V14.01,2013-10-01 10:58:00,
2013-10-01 07:00:00,48.3,47.2,30.02,WNW,294,0.0,0.0,96,0.00,,,0.00,0.00,VWS V14.01,2013-10-01 11:00:00,
2013-10-01 07:03:00,48.5,47.4,30.02,WNW,294,0.0,0.0,96,0.00,,,0.00,7.00,VWS V14.01,2013-10-01 11:03:00,
2013-10-01 07:08:00,48.5,47.4,30.02,WNW,294,0.0,0.0,96,0.00,,,0.00,11.00,VWS V14.01,2013-10-01 11:08:00,
2013-10-01 07:13:00,48.0,46.6,30.02,WNW,294,0.0,0.0,95,0.00,,,0.00,14.00,VWS V14.01,2013-10-01 11:13:00,
2013-10-01 07:15:00,47.9,46.5,30.03,WNW,294,0.0,0.0,95,0.00,,,0.00,14.00,VWS V14.01,2013-10-01 11:15:00,
2013-10-01 07:19:00,47.4,46.0,30.03,WNW,294,0.0,0.0,95,0.00,,,0.00,16.00,VWS V14.01,2013-10-01 11:19:00,
2013-10-01 07:24:00,47.1,45.7,30.03,WNW,294,0.0,0.0,95,0.00,,,0.00,19.00,VWS V14.01,2013-10-01 11:24:00,
2013-10-01 07:29:00,47.1,46.0,30.03,WNW,294,0.0,0.0,96,0.00,,,0.00,23.00,VWS V14.01,2013-10-01 11:29:00,
2013-10-01 07:30:00,47.1,46.0,30.03,WNW,294,0.0,0.0,96,0.00,,,0.00,25.00,VWS V14.01,2013-10-01 11:30:00,
2013-10-01 07:34:00,47.3,46.2,30.03,WNW,294,0.0,0.0,96,0.00,,,0.00,26.00,VWS V14.01,2013-10-01 11:34:00,
2013-10-01 07:39:00,47.3,46.2,30.03,WNW,294,0.0,0.0,96,0.00,,,0.00,30.00,VWS V14.01,2013-10-01 11:39:00,
2013-10-01 07:44:00,47.4,46.3,30.03,WNW,294,0.0,0.0,96,0.00,,,0.00,33.00,VWS V14.01,2013-10-01 11:44:00,
2013-10-01 07:45:00,47.4,46.3,30.03,WNW,294,0.0,0.0,96,0.00,,,0.00,35.00,VWS V14.01,2013-10-01 11:45:00,
2013-10-01 07:49:00,47.7,46.6,30.03,WNW,294,0.0,0.0,96,0.00,,,0.00,76.00,VWS V14.01,2013-10-01 11:49:00,
2013-10-01 07:54:00,48.3,47.2,30.03,WNW,294,0.0,0.0,96,0.00,,,0.00,102.00,VWS V14.01,2013-10-01 11:54:00,
2013-10-01 07:59:00,48.0,46.9,30.03,WNW,294,0.0,0.0,96,0.00,,,0.00,116.00,VWS V14.01,2013-10-01 11:59:00,
2013-10-01 08:00:00,47.9,46.8,30.03,WNW,294,0.0,0.0,96,0.00,,,0.00,121.00,VWS V14.01,2013-10-01 12:00:00,
2013-10-01 08:04:00,48.3,47.2,30.03,WNW,294,0.0,0.0,96,0.00,,,0.00,130.00,VWS V14.01,2013-10-01 12:04:00,
2013-10-01 08:09:00,49.1,48.3,30.03,WNW,294,0.0,0.0,97,0.00,,,0.00,142.00,VWS V14.01,2013-10-01 12:09:00,
2013-10-01 08:14:00,49.4,48.6,30.03,WNW,294,0.0,0.0,97,0.00,,,0.00,156.00,VWS V14.01,2013-10-01 12:14:00,
2013-10-01 08:15:00,49.6,48.8,30.02,WNW,294,0.0,0.0,97,0.00,,,0.00,162.00,VWS V14.01,2013-10-01 12:15:00,
2013-10-01 08:19:00,50.4,49.6,30.02,WNW,294,0.0,0.0,97,0.00,,,0.00,183.00,VWS V14.01,2013-10-01 12:19:00,
2013-10-01 08:24:00,51.1,50.3,30.02,WNW,294,0.0,0.0,97,0.00,,,0.00,183.00,VWS V14.01,2013-10-01 12:24:00,
2013-10-01 08:29:00,51.1,50.0,30.02,WNW,294,0.0,1.0,96,0.00,,,0.00,49.00,VWS V14.01,2013-10-01 12:29:00,
2013-10-01 08:30:00,50.8,49.7,30.03,WNW,294,0.0,1.0,96,0.00,,,0.00,192.00,VWS V14.01,2013-10-01 12:30:00,
2013-10-01 08:34:00,50.7,49.6,30.03,WNW,294,0.0,0.0,96,0.00,,,0.00,200.00,VWS V14.01,2013-10-01 12:34:00,
2013-10-01 08:39:00,51.0,49.9,30.03,WNW,294,0.0,0.0,96,0.00,,,0.00,214.00,VWS V14.01,2013-10-01 12:39:00,
2013-10-01 08:44:00,52.3,51.2,30.03,WNW,294,0.0,0.0,96,0.00,,,0.00,229.00,VWS V14.01,2013-10-01 12:44:00,
2013-10-01 08:45:00,52.3,51.2,30.03,WNW,294,0.0,0.0,96,0.00,,,0.00,230.00,VWS V14.01,2013-10-01 12:45:00,
2013-10-01 08:49:00,52.8,51.4,30.03,WNW,294,0.0,0.0,95,0.00,,,0.00,243.00,VWS V14.01,2013-10-01 12:49:00,
2013-10-01 08:54:00,53.6,52.2,30.03,WNW,294,0.0,0.0,95,0.00,,,0.00,253.00,VWS V14.01,2013-10-01 12:54:00,
2013-10-01 08:59:00,54.4,52.4,30.03,WNW,292,0.0,0.0,93,0.00,,,0.00,265.00,VWS V14.01,2013-10-01 12:59:00,
2013-10-01 09:00:00,54.4,52.4,30.03,WNW,294,0.0,0.0,93,0.00,,,0.00,265.00,VWS V14.01,2013-10-01 13:00:00,
2013-10-01 09:04:00,54.5,52.2,30.03,WNW,294,0.0,0.0,92,0.00,,,0.00,272.00,VWS V14.01,2013-10-01 13:04:00,
2013-10-01 09:09:00,55.3,52.7,30.03,WNW,294,0.0,0.0,91,0.00,,,0.00,285.00,VWS V14.01,2013-10-01 13:09:00,
2013-10-01 09:14:00,56.0,53.1,30.03,WNW,294,0.0,0.0,90,0.00,,,0.00,158.00,VWS V14.01,2013-10-01 13:14:00,
2013-10-01 09:15:00,56.2,53.0,30.04,WNW,294,0.0,0.0,89,0.00,,,0.00,167.00,VWS V14.01,2013-10-01 13:15:00,
2013-10-01 09:19:00,56.3,53.1,30.04,WNW,294,0.0,0.0,89,0.00,,,0.00,134.00,VWS V14.01,2013-10-01 13:19:00,
2013-10-01 09:24:00,57.3,53.8,30.04,WNW,294,0.0,0.0,88,0.00,,,0.00,169.00,VWS V14.01,2013-10-01 13:24:00,
2013-10-01 09:29:00,58.1,53.9,30.03,WNW,294,0.0,0.0,86,0.00,,,0.00,172.00,VWS V14.01,2013-10-01 13:29:00,
2013-10-01 09:30:00,58.3,54.1,30.03,WNW,294,0.0,0.0,86,0.00,,,0.00,176.00,VWS V14.01,2013-10-01 13:30:00,
2013-10-01 09:34:00,58.9,54.1,30.03,WNW,294,0.0,0.0,84,0.00,,,0.00,336.00,VWS V14.01,2013-10-01 13:34:00,
2013-10-01 09:39:00,59.8,54.6,30.03,WNW,294,0.0,0.0,83,0.00,,,0.00,366.00,VWS V14.01,2013-10-01 13:39:00,
2013-10-01 09:44:00,60.7,54.8,30.03,WNW,294,0.0,0.0,81,0.00,,,0.00,229.00,VWS V14.01,2013-10-01 13:44:00,
2013-10-01 09:45:00,60.9,55.0,30.03,WNW,294,0.0,0.0,81,0.00,,,0.00,209.00,VWS V14.01,2013-10-01 13:45:00,
2013-10-01 09:49:00,61.6,54.7,30.03,WNW,294,0.0,1.0,78,0.00,,,0.00,181.00,VWS V14.01,2013-10-01 13:49:00,
2013-10-01 09:54:00,61.6,54.7,30.03,WNW,294,0.0,1.0,78,0.00,,,0.00,304.00,VWS V14.01,2013-10-01 13:54:00,
2013-10-01 09:59:00,62.3,55.4,30.03,WNW,294,0.0,1.0,78,0.00,,,0.00,155.00,VWS V14.01,2013-10-01 13:59:00,
2013-10-01 10:00:00,62.4,55.1,30.03,WNW,294,0.0,1.0,77,0.00,,,0.00,443.00,VWS V14.01,2013-10-01 14:00:00,
2013-10-01 10:04:00,62.6,55.7,30.03,WNW,294,0.0,0.0,78,0.00,,,0.00,461.00,VWS V14.01,2013-10-01 14:04:00,
2013-10-01 10:09:00,63.1,55.1,30.03,WNW,294,0.0,0.0,75,0.00,,,0.00,475.00,VWS V14.01,2013-10-01 14:09:00,
2013-10-01 10:14:00,63.5,54.3,30.03,WNW,294,0.0,0.0,72,0.00,,,0.00,487.00,VWS V14.01,2013-10-01 14:14:00,
2013-10-01 10:15:00,63.5,54.3,30.03,WNW,294,0.0,0.0,72,0.00,,,0.00,489.00,VWS V14.01,2013-10-01 14:15:00,
2013-10-01 10:19:00,64.2,54.6,30.03,WNW,294,0.0,1.0,71,0.00,,,0.00,501.00,VWS V14.01,2013-10-01 14:19:00,
2013-10-01 10:24:00,64.7,55.1,30.03,WNW,294,0.0,1.0,71,0.00,,,0.00,512.00,VWS V14.01,2013-10-01 14:24:00,
2013-10-01 10:29:00,65.0,55.8,30.02,WNW,294,0.0,1.0,72,0.00,,,0.00,524.00,VWS V14.01,2013-10-01 14:29:00,
2013-10-01 10:30:00,65.0,55.8,30.02,WNW,294,0.0,1.0,72,0.00,,,0.00,526.00,VWS V14.01,2013-10-01 14:30:00,
2013-10-01 10:35:00,65.3,55.3,30.02,WNW,294,0.0,0.0,70,0.00,,,0.00,538.00,VWS V14.01,2013-10-01 14:35:00,
2013-10-01 10:40:00,66.1,56.4,30.02,WNW,294,0.0,0.0,71,0.00,,,0.00,584.00,VWS V14.01,2013-10-01 14:40:00,
2013-10-01 10:45:00,66.6,55.7,30.02,West,272,0.0,0.0,68,0.00,,,0.00,710.00,VWS V14.01,2013-10-01 14:45:00,
2013-10-01 10:50:00,66.1,55.2,30.02,West,261,3.0,5.0,68,0.00,,,0.00,429.00,VWS V14.01,2013-10-01 14:50:00,
2013-10-01 10:55:00,66.8,55.9,30.02,West,261,0.0,5.0,68,0.00,,,0.00,360.00,VWS V14.01,2013-10-01 14:55:00,
2013-10-01 11:00:00,67.3,56.0,30.01,West,261,0.0,5.0,67,0.00,,,0.00,388.00,VWS V14.01,2013-10-01 15:00:00,
2013-10-01 11:05:00,67.4,56.1,30.01,NW,304,0.0,5.0,67,0.00,,,0.00,367.00,VWS V14.01,2013-10-01 15:05:00,
2013-10-01 11:10:00,67.6,55.8,30.01,WNW,294,0.0,5.0,66,0.00,,,0.00,585.00,VWS V14.01,2013-10-01 15:10:00,
2013-10-01 11:15:00,67.9,56.5,30.01,WSW,238,3.0,5.0,67,0.00,,,0.00,494.00,VWS V14.01,2013-10-01 15:15:00,
2013-10-01 11:20:00,68.3,56.9,30.01,WSW,238,0.0,3.0,67,0.00,,,0.00,454.00,VWS V14.01,2013-10-01 15:20:00,
2013-10-01 11:25:00,69.8,56.7,30.01,WSW,240,2.0,5.0,63,0.00,,,0.00,469.00,VWS V14.01,2013-10-01 15:25:00,
2013-10-01 11:30:00,69.4,56.3,30.01,WNW,303,0.0,5.0,63,0.00,,,0.00,388.00,VWS V14.01,2013-10-01 15:30:00,
2013-10-01 11:35:00,69.9,57.2,30.01,NW,316,0.0,1.0,64,0.00,,,0.00,418.00,VWS V14.01,2013-10-01 15:35:00,
2013-10-01 11:40:00,69.9,56.8,30.01,West,265,0.0,1.0,63,0.00,,,0.00,450.00,VWS V14.01,2013-10-01 15:40:00,
2013-10-01 11:45:00,69.4,57.1,30.01,West,265,1.0,5.0,65,0.00,,,0.00,545.00,VWS V14.01,2013-10-01 15:45:00,
2013-10-01 11:50:00,69.8,57.1,30.01,WSW,238,4.0,7.0,64,0.00,,,0.00,403.00,VWS V14.01,2013-10-01 15:50:00,
2013-10-01 11:55:00,70.4,57.2,30.01,NW,305,4.0,7.0,63,0.00,,,0.00,408.00,VWS V14.01,2013-10-01 15:55:00,
2013-10-01 12:00:00,70.9,57.2,30.00,North,350,2.0,2.0,62,0.00,,,0.00,454.00,VWS V14.01,2013-10-01 16:00:00,
2013-10-01 12:05:00,71.8,57.2,30.00,WNW,289,0.0,5.0,60,0.00,,,0.00,512.00,VWS V14.01,2013-10-01 16:05:00,
2013-10-01 12:10:00,71.3,57.6,30.00,WNW,289,0.0,5.0,62,0.00,,,0.00,454.00,VWS V14.01,2013-10-01 16:10:00,
2013-10-01 12:15:00,71.1,57.4,30.00,WSW,249,2.0,2.0,62,0.00,,,0.00,443.00,VWS V14.01,2013-10-01 16:15:00,
2013-10-01 12:20:00,71.5,57.8,30.00,West,259,2.0,6.0,62,0.00,,,0.00,693.00,VWS V14.01,2013-10-01 16:20:00,
2013-10-01 12:25:00,71.3,57.6,30.00,West,266,0.0,8.0,62,0.00,,,0.00,684.00,VWS V14.01,2013-10-01 16:25:00,
2013-10-01 12:30:00,71.3,57.6,29.99,SSW,211,5.0,7.0,62,0.00,,,0.00,682.00,VWS V14.01,2013-10-01 16:30:00,
2013-10-01 12:31:00,71.3,57.6,29.99,SW,236,5.0,7.0,62,0.00,,,0.00,684.00,VWS V14.01,2013-10-01 16:31:00,
2013-10-01 12:36:00,71.8,57.6,29.99,West,269,0.0,7.0,61,0.00,,,0.00,680.00,VWS V14.01,2013-10-01 16:36:00,
2013-10-01 12:41:00,72.3,57.7,29.99,WSW,255,0.0,7.0,60,0.00,,,0.00,677.00,VWS V14.01,2013-10-01 16:41:00,
2013-10-01 12:45:00,73.0,57.8,29.99,WSW,255,0.0,7.0,59,0.00,,,0.00,682.00,VWS V14.01,2013-10-01 16:45:00,
2013-10-01 12:46:00,73.2,58.0,29.99,WSW,255,0.0,0.0,59,0.00,,,0.00,684.00,VWS V14.01,2013-10-01 16:46:00,
2013-10-01 12:51:00,73.3,57.2,29.99,NNE,26,2.0,7.0,57,0.00,,,0.00,687.00,VWS V14.01,2013-10-01 16:51:00,
2013-10-01 12:56:00,74.7,58.5,29.99,SW,225,0.0,7.0,57,0.00,,,0.00,691.00,VWS V14.01,2013-10-01 16:56:00,
2013-10-01 13:00:00,74.0,57.3,29.98,WSW,248,5.0,7.0,56,0.00,,,0.00,693.00,VWS V14.01,2013-10-01 17:00:00,
2013-10-01 13:01:00,73.9,58.2,29.98,WSW,245,2.0,5.0,58,0.00,,,0.00,693.00,VWS V14.01,2013-10-01 17:01:00,
2013-10-01 13:06:00,74.6,58.4,29.98,WSW,246,0.0,5.0,57,0.00,,,0.00,693.00,VWS V14.01,2013-10-01 17:06:00,
2013-10-01 13:11:00,74.2,58.0,29.98,West,281,5.0,6.0,57,0.00,,,0.00,684.00,VWS V14.01,2013-10-01 17:11:00,
2013-10-01 13:15:00,74.2,58.5,29.98,West,260,0.0,7.0,58,0.00,,,0.00,689.00,VWS V14.01,2013-10-01 17:15:00,
2013-10-01 13:16:00,74.2,58.5,29.98,West,260,0.0,0.0,58,0.00,,,0.00,691.00,VWS V14.01,2013-10-01 17:16:00,
2013-10-01 13:21:00,74.7,58.0,29.98,West,272,1.0,8.0,56,0.00,,,0.00,682.00,VWS V14.01,2013-10-01 17:21:00,
2013-10-01 13:26:00,75.3,59.5,29.98,WSW,249,0.0,8.0,58,0.00,,,0.00,684.00,VWS V14.01,2013-10-01 17:26:00,
2013-10-01 13:30:00,76.7,58.3,29.97,NW,306,0.0,8.0,53,0.00,,,0.00,673.00,VWS V14.01,2013-10-01 17:30:00,
2013-10-01 13:31:00,76.1,57.8,29.97,NW,306,0.0,0.0,53,0.00,,,0.00,682.00,VWS V14.01,2013-10-01 17:31:00,
2013-10-01 13:36:00,76.1,58.3,29.97,WNW,294,0.0,5.0,54,0.00,,,0.00,693.00,VWS V14.01,2013-10-01 17:36:00,
2013-10-01 13:41:00,77.2,57.7,29.97,North,5,0.0,5.0,51,0.00,,,0.00,689.00,VWS V14.01,2013-10-01 17:41:00,
2013-10-01 13:45:00,77.9,58.9,29.96,WNW,284,0.0,5.0,52,0.00,,,0.00,729.00,VWS V14.01,2013-10-01 17:45:00,
2013-10-01 13:46:00,77.9,58.9,29.96,WNW,284,0.0,0.0,52,0.00,,,0.00,738.00,VWS V14.01,2013-10-01 17:46:00,
2013-10-01 13:51:00,77.0,58.6,29.96,West,279,2.0,7.0,53,0.00,,,0.00,742.00,VWS V14.01,2013-10-01 17:51:00,
2013-10-01 13:56:00,76.8,58.4,29.96,West,279,0.0,8.0,53,0.00,,,0.00,761.00,VWS V14.01,2013-10-01 17:56:00,
2013-10-01 14:00:00,76.7,58.3,29.95,WSW,244,7.0,8.0,53,0.00,,,0.00,496.00,VWS V14.01,2013-10-01 18:00:00,
2013-10-01 14:01:00,76.3,57.9,29.95,SW,230,5.0,8.0,53,0.00,,,0.00,496.00,VWS V14.01,2013-10-01 18:01:00,
2013-10-01 14:06:00,76.1,58.8,29.95,WSW,241,0.0,8.0,55,0.00,,,0.00,759.00,VWS V14.01,2013-10-01 18:06:00,
2013-10-01 14:11:00,78.3,57.6,29.95,NW,323,1.0,8.0,49,0.00,,,0.00,265.00,VWS V14.01,2013-10-01 18:11:00,
2013-10-01 14:15:00,77.4,57.9,29.95,West,259,1.0,9.0,51,0.00,,,0.00,195.00,VWS V14.01,2013-10-01 18:15:00,
2013-10-01 14:16:00,76.8,57.3,29.95,WSW,252,7.0,8.0,51,0.00,,,0.00,192.00,VWS V14.01,2013-10-01 18:16:00,
2013-10-01 14:21:00,76.1,57.8,29.95,WSW,244,0.0,8.0,53,0.00,,,0.00,239.00,VWS V14.01,2013-10-01 18:21:00,
2013-10-01 14:26:00,76.0,57.7,29.95,West,273,5.0,8.0,53,0.00,,,0.00,301.00,VWS V14.01,2013-10-01 18:26:00,
2013-10-01 14:30:00,76.1,57.7,29.94,North,9,0.0,8.0,53,0.00,,,0.00,220.00,VWS V14.01,2013-10-01 18:30:00,
2013-10-01 14:31:00,76.3,57.9,29.94,SW,232,0.0,1.0,53,0.00,,,0.00,183.00,VWS V14.01,2013-10-01 18:31:00,
2013-10-01 14:36:00,76.1,57.8,29.94,SW,234,0.0,1.0,53,0.00,,,0.00,151.00,VWS V14.01,2013-10-01 18:36:00,
2013-10-01 14:42:00,75.6,57.8,29.94,SW,227,0.0,6.0,54,0.00,,,0.00,149.00,VWS V14.01,2013-10-01 18:42:00,
2013-10-01 14:45:00,75.4,58.1,29.94,SW,227,0.0,6.0,55,0.00,,,0.00,160.00,VWS V14.01,2013-10-01 18:45:00,
2013-10-01 14:47:00,75.6,58.8,29.94,SW,227,0.0,0.0,56,0.00,,,0.00,174.00,VWS V14.01,2013-10-01 18:47:00,
2013-10-01 14:52:00,75.8,58.5,29.94,WNW,292,0.0,5.0,55,0.00,,,0.00,244.00,VWS V14.01,2013-10-01 18:52:00,
2013-10-01 14:57:00,76.1,59.3,29.94,West,259,0.0,5.0,56,0.00,,,0.00,547.00,VWS V14.01,2013-10-01 18:57:00,
2013-10-01 15:00:00,76.7,58.3,29.94,WNW,294,5.0,6.0,53,0.00,,,0.00,737.00,VWS V14.01,2013-10-01 19:00:00,
2013-10-01 15:02:00,76.7,58.3,29.94,SW,233,5.0,8.0,53,0.00,,,0.00,719.00,VWS V14.01,2013-10-01 19:02:00,
2013-10-01 15:07:00,76.8,58.4,29.94,WSW,250,6.0,9.0,53,0.00,,,0.00,675.00,VWS V14.01,2013-10-01 19:07:00,
2013-10-01 15:12:00,76.5,58.1,29.94,West,264,6.0,10.0,53,0.00,,,0.00,214.00,VWS V14.01,2013-10-01 19:12:00,
2013-10-01 15:15:00,76.0,58.2,29.93,WSW,243,5.0,10.0,54,0.00,,,0.00,200.00,VWS V14.01,2013-10-01 19:15:00,
2013-10-01 15:17:00,75.8,58.0,29.93,West,267,4.0,6.0,54,0.00,,,0.00,192.00,VWS V14.01,2013-10-01 19:17:00,
2013-10-01 15:22:00,75.4,57.6,29.93,WSW,248,4.0,9.0,54,0.00,,,0.00,230.00,VWS V14.01,2013-10-01 19:22:00,
2013-10-01 15:27:00,76.1,58.3,29.93,West,265,6.0,9.0,54,0.00,,,0.00,585.00,VWS V14.01,2013-10-01 19:27:00,
2013-10-01 15:30:00,76.5,58.1,29.93,West,277,4.0,10.0,53,0.00,,,0.00,171.00,VWS V14.01,2013-10-01 19:30:00,
2013-10-01 15:32:00,76.3,57.9,29.93,West,276,7.0,8.0,53,0.00,,,0.00,158.00,VWS V14.01,2013-10-01 19:32:00,
2013-10-01 15:37:00,75.8,58.5,29.93,WSW,249,0.0,8.0,55,0.00,,,0.00,155.00,VWS V14.01,2013-10-01 19:37:00,
2013-10-01 15:42:00,75.4,58.6,29.93,WNW,285,5.0,8.0,56,0.00,,,0.00,169.00,VWS V14.01,2013-10-01 19:42:00,
2013-10-01 15:45:00,75.3,59.5,29.93,WNW,285,0.0,8.0,58,0.00,,,0.00,134.00,VWS V14.01,2013-10-01 19:45:00,
2013-10-01 15:47:00,75.1,58.8,29.93,WNW,285,2.0,4.0,57,0.00,,,0.00,114.00,VWS V14.01,2013-10-01 19:47:00,
2013-10-01 15:52:00,74.9,59.1,29.93,West,270,0.0,4.0,58,0.00,,,0.00,113.00,VWS V14.01,2013-10-01 19:52:00,
2013-10-01 15:57:00,74.6,59.3,29.93,West,270,0.0,4.0,59,0.00,,,0.00,125.00,VWS V14.01,2013-10-01 19:57:00,
2013-10-01 16:00:00,74.6,59.8,29.93,West,270,0.0,4.0,60,0.00,,,0.00,139.00,VWS V14.01,2013-10-01 20:00:00,
2013-10-01 16:02:00,74.4,59.6,29.93,West,270,0.0,0.0,60,0.00,,,0.00,146.00,VWS V14.01,2013-10-01 20:02:00,
2013-10-01 16:07:00,74.4,59.6,29.93,West,270,0.0,0.0,60,0.00,,,0.00,163.00,VWS V14.01,2013-10-01 20:07:00,
2013-10-01 16:12:00,74.6,60.3,29.93,West,270,0.0,0.0,61,0.00,,,0.00,167.00,VWS V14.01,2013-10-01 20:12:00,
2013-10-01 16:15:00,74.7,59.9,29.92,West,270,0.0,0.0,60,0.00,,,0.00,146.00,VWS V14.01,2013-10-01 20:15:00,
2013-10-01 16:17:00,74.7,59.9,29.92,West,270,0.0,0.0,60,0.00,,,0.00,137.00,VWS V14.01,2013-10-01 20:17:00,
2013-10-01 16:22:00,74.9,61.0,29.92,West,270,0.0,0.0,62,0.00,,,0.00,95.00,VWS V14.01,2013-10-01 20:22:00,
2013-10-01 16:27:00,74.9,59.6,29.92,West,270,0.0,0.0,59,0.00,,,0.00,74.00,VWS V14.01,2013-10-01 20:27:00,
2013-10-01 16:30:00,75.1,60.3,29.92,West,270,0.0,0.0,60,0.00,,,0.00,84.00,VWS V14.01,2013-10-01 20:30:00,
2013-10-01 16:32:00,75.1,60.8,29.92,West,270,0.0,0.0,61,0.00,,,0.00,98.00,VWS V14.01,2013-10-01 20:32:00,
2013-10-01 16:37:00,75.4,60.6,29.92,West,270,0.0,0.0,60,0.00,,,0.00,105.00,VWS V14.01,2013-10-01 20:37:00,
2013-10-01 16:42:00,75.6,63.0,29.92,West,270,0.0,0.0,65,0.00,,,0.00,83.00,VWS V14.01,2013-10-01 20:42:00,
2013-10-01 16:45:00,75.6,62.6,29.92,West,270,0.0,0.0,64,0.00,,,0.00,76.00,VWS V14.01,2013-10-01 20:45:00,
2013-10-01 16:47:00,75.6,62.6,29.92,West,270,0.0,0.0,64,0.00,,,0.00,88.00,VWS V14.01,2013-10-01 20:47:00,
2013-10-01 16:52:00,75.4,62.8,29.92,West,270,0.0,0.0,65,0.00,,,0.00,141.00,VWS V14.01,2013-10-01 20:52:00,
2013-10-01 16:57:00,75.6,63.9,29.92,West,267,0.0,0.0,67,0.00,,,0.00,107.00,VWS V14.01,2013-10-01 20:57:00,
2013-10-01 17:00:00,75.8,64.1,29.92,West,270,0.0,0.0,67,0.00,,,0.00,81.00,VWS V14.01,2013-10-01 21:00:00,
2013-10-01 17:02:00,75.6,62.6,29.92,West,270,0.0,0.0,64,0.00,,,0.00,72.00,VWS V14.01,2013-10-01 21:02:00,
2013-10-01 17:07:00,75.3,61.8,29.92,West,270,0.0,0.0,63,0.00,,,0.00,183.00,VWS V14.01,2013-10-01 21:07:00,
2013-10-01 17:12:00,74.9,61.0,29.92,West,270,0.0,0.0,62,0.00,,,0.00,88.00,VWS V14.01,2013-10-01 21:12:00,
2013-10-01 17:15:00,74.7,61.3,29.92,West,270,0.0,1.0,63,0.00,,,0.00,83.00,VWS V14.01,2013-10-01 21:15:00,
2013-10-01 17:17:00,74.4,60.1,29.92,West,273,4.0,5.0,61,0.00,,,0.00,63.00,VWS V14.01,2013-10-01 21:17:00,
2013-10-01 17:22:00,74.2,60.4,29.92,WNW,288,0.0,5.0,62,0.00,,,0.00,195.00,VWS V14.01,2013-10-01 21:22:00,
2013-10-01 17:27:00,74.2,60.4,29.92,WNW,288,0.0,5.0,62,0.00,,,0.00,183.00,VWS V14.01,2013-10-01 21:27:00,
2013-10-01 17:30:00,74.2,60.8,29.93,WNW,288,0.0,5.0,63,0.00,,,0.00,174.00,VWS V14.01,2013-10-01 21:30:00,
2013-10-01 17:32:00,74.4,60.5,29.93,WNW,286,0.0,0.0,62,0.00,,,0.00,171.00,VWS V14.01,2013-10-01 21:32:00,
2013-10-01 17:37:00,74.4,61.0,29.93,WNW,288,0.0,0.0,63,0.00,,,0.00,151.00,VWS V14.01,2013-10-01 21:37:00,
2013-10-01 17:42:00,74.6,61.2,29.93,WNW,288,0.0,0.0,63,0.00,,,0.00,121.00,VWS V14.01,2013-10-01 21:42:00,
2013-10-01 17:45:00,74.6,61.2,29.93,WNW,288,0.0,0.0,63,0.00,,,0.00,113.00,VWS V14.01,2013-10-01 21:45:00,
2013-10-01 17:47:00,74.6,61.2,29.93,WNW,288,0.0,0.0,63,0.00,,,0.00,113.00,VWS V14.01,2013-10-01 21:47:00,
2013-10-01 17:52:00,74.2,59.9,29.93,WNW,288,0.0,0.0,61,0.00,,,0.00,100.00,VWS V14.01,2013-10-01 21:52:00,
2013-10-01 17:57:00,74.0,60.6,29.93,WNW,288,0.0,0.0,63,0.00,,,0.00,90.00,VWS V14.01,2013-10-01 21:57:00,
2013-10-01 18:00:00,74.0,61.1,29.93,WNW,288,0.0,0.0,64,0.00,,,0.00,83.00,VWS V14.01,2013-10-01 22:00:00,
2013-10-01 18:02:00,74.0,60.6,29.93,WNW,286,0.0,0.0,63,0.00,,,0.00,74.00,VWS V14.01,2013-10-01 22:02:00,
2013-10-01 18:07:00,74.0,62.4,29.93,WNW,288,0.0,0.0,67,0.00,,,0.00,60.00,VWS V14.01,2013-10-01 22:07:00,
2013-10-01 18:13:00,73.9,62.7,29.93,WNW,288,0.0,0.0,68,0.00,,,0.00,46.00,VWS V14.01,2013-10-01 22:13:00,
2013-10-01 18:15:00,73.7,62.5,29.93,WNW,288,0.0,0.0,68,0.00,,,0.00,39.00,VWS V14.01,2013-10-01 22:15:00,
2013-10-01 18:17:00,73.7,62.5,29.93,WNW,288,0.0,0.0,68,0.00,,,0.00,30.00,VWS V14.01,2013-10-01 22:17:00,
2013-10-01 18:22:00,73.3,62.5,29.93,WNW,288,0.0,0.0,69,0.00,,,0.00,26.00,VWS V14.01,2013-10-01 22:22:00,
2013-10-01 18:28:00,73.0,62.7,29.93,WNW,288,0.0,0.0,70,0.00,,,0.00,21.00,VWS V14.01,2013-10-01 22:28:00,
2013-10-01 18:30:00,72.7,62.8,29.93,WNW,288,0.0,0.0,71,0.00,,,0.00,18.00,VWS V14.01,2013-10-01 22:30:00,
2013-10-01 18:33:00,72.5,62.6,29.93,WNW,288,0.0,0.0,71,0.00,,,0.00,12.00,VWS V14.01,2013-10-01 22:33:00,
2013-10-01 18:38:00,72.1,62.6,29.93,WNW,288,0.0,0.0,72,0.00,,,0.00,5.00,VWS V14.01,2013-10-01 22:38:00,
2013-10-01 18:43:00,71.6,62.1,29.93,WNW,288,0.0,0.0,72,0.00,,,0.00,0.00,VWS V14.01,2013-10-01 22:43:00,
2013-10-01 18:45:00,71.3,62.2,29.93,WNW,288,0.0,0.0,73,0.00,,,0.00,0.00,VWS V14.01,2013-10-01 22:45:00,
2013-10-01 18:48:00,70.9,61.8,29.93,WNW,288,0.0,0.0,73,0.00,,,0.00,0.00,VWS V14.01,2013-10-01 22:48:00,
2013-10-01 18:53:00,70.3,61.6,29.93,WNW,288,0.0,0.0,74,0.00,,,0.00,0.00,VWS V14.01,2013-10-01 22:53:00,
2013-10-01 18:58:00,69.8,61.2,29.93,WNW,288,0.0,0.0,74,0.00,,,0.00,0.00,VWS V14.01,2013-10-01 22:58:00,
2013-10-01 19:00:00,69.4,61.1,29.94,WNW,288,0.0,0.0,75,0.00,,,0.00,0.00,VWS V14.01,2013-10-01 23:00:00,
2013-10-01 19:03:00,69.3,61.0,29.94,WNW,288,0.0,0.0,75,0.00,,,0.00,0.00,VWS V14.01,2013-10-01 23:03:00,
2013-10-01 19:08:00,68.6,60.7,29.94,WNW,288,0.0,0.0,76,0.00,,,0.00,0.00,VWS V14.01,2013-10-01 23:08:00,
2013-10-01 19:15:00,67.8,60.3,29.94,WNW,288,0.0,0.0,77,0.00,,,0.00,0.00,VWS V14.01,2013-10-01 23:15:00,
2013-10-01 19:16:00,67.8,60.3,29.94,WNW,288,0.0,0.0,77,0.00,,,0.00,0.00,VWS V14.01,2013-10-01 23:16:00,
2013-10-01 19:20:00,67.3,60.2,29.94,WNW,288,0.0,0.0,78,0.00,,,0.00,0.00,VWS V14.01,2013-10-01 23:20:00,
2013-10-01 19:25:00,66.8,59.7,29.94,WNW,288,0.0,0.0,78,0.00,,,0.00,0.00,VWS V14.01,2013-10-01 23:25:00,
2013-10-01 19:30:00,66.3,59.6,29.95,WNW,288,0.0,0.0,79,0.00,,,0.00,0.00,VWS V14.01,2013-10-01 23:30:00,
2013-10-01 19:35:00,65.8,59.5,29.95,WNW,288,0.0,0.0,80,0.00,,,0.00,0.00,VWS V14.01,2013-10-01 23:35:00,
2013-10-01 19:40:00,65.3,59.3,29.95,WNW,288,0.0,0.0,81,0.00,,,0.00,0.00,VWS V14.01,2013-10-01 23:40:00,
2013-10-01 19:45:00,64.7,58.7,29.95,WNW,288,0.0,0.0,81,0.00,,,0.00,0.00,VWS V14.01,2013-10-01 23:45:00,
2013-10-01 19:50:00,64.2,58.6,29.95,WNW,288,0.0,0.0,82,0.00,,,0.00,0.00,VWS V14.01,2013-10-01 23:50:00,
2013-10-01 19:55:00,63.7,58.5,29.95,WNW,288,0.0,0.0,83,0.00,,,0.00,0.00,VWS V14.01,2013-10-01 23:55:00,
2013-10-01 20:00:00,63.4,58.5,29.95,WNW,288,0.0,0.0,84,0.00,,,0.00,0.00,VWS V14.01,2013-10-02 00:00:00,
2013-10-01 20:05:00,63.1,58.2,29.95,WNW,288,0.0,0.0,84,0.00,,,0.00,0.00,VWS V14.01,2013-10-02 00:05:00,
2013-10-01 20:10:00,62.7,57.8,29.95,WNW,288,0.0,0.0,84,0.00,,,0.00,0.00,VWS V14.01,2013-10-02 00:10:00,
2013-10-01 20:15:00,62.4,57.8,29.96,WNW,288,0.0,0.0,85,0.00,,,0.00,0.00,VWS V14.01,2013-10-02 00:15:00,
2013-10-01 20:16:00,62.3,57.7,29.96,WNW,288,0.0,0.0,85,0.00,,,0.00,0.00,VWS V14.01,2013-10-02 00:16:00,
2013-10-01 20:21:00,62.0,57.8,29.96,WNW,288,0.0,0.0,86,0.00,,,0.00,0.00,VWS V14.01,2013-10-02 00:21:00,
2013-10-01 20:26:00,61.8,57.6,29.96,WNW,288,0.0,0.0,86,0.00,,,0.00,0.00,VWS V14.01,2013-10-02 00:26:00,
2013-10-01 20:30:00,61.5,57.3,29.96,WNW,288,0.0,0.0,86,0.00,,,0.00,0.00,VWS V14.01,2013-10-02 00:30:00,
2013-10-01 20:31:00,61.5,57.6,29.96,WNW,288,0.0,0.0,87,0.00,,,0.00,0.00,VWS V14.01,2013-10-02 00:31:00,
2013-10-01 20:36:00,61.2,57.3,29.96,WNW,288,0.0,0.0,87,0.00,,,0.00,0.00,VWS V14.01,2013-10-02 00:36:00,
2013-10-01 20:41:00,61.0,57.1,29.96,WNW,288,0.0,0.0,87,0.00,,,0.00,0.00,VWS V14.01,2013-10-02 00:41:00,
2013-10-01 20:45:00,60.7,57.1,29.96,WNW,288,0.0,0.0,88,0.00,,,0.00,0.00,VWS V14.01,2013-10-02 00:45:00,
2013-10-01 20:46:00,60.7,57.1,29.96,WNW,288,0.0,0.0,88,0.00,,,0.00,0.00,VWS V14.01,2013-10-02 00:46:00,
2013-10-01 20:51:00,60.5,56.9,29.96,WNW,288,0.0,0.0,88,0.00,,,0.00,0.00,VWS V14.01,2013-10-02 00:51:00,
2013-10-01 20:56:00,60.2,56.6,29.96,WNW,288,0.0,0.0,88,0.00,,,0.00,0.00,VWS V14.01,2013-10-02 00:56:00,
2013-10-01 21:00:00,60.1,56.8,29.96,WNW,288,0.0,0.0,89,0.00,,,0.00,0.00,VWS V14.01,2013-10-02 01:00:00,
2013-10-01 21:01:00,60.1,56.5,29.96,WNW,288,0.0,0.0,88,0.00,,,0.00,0.00,VWS V14.01,2013-10-02 01:01:00,
2013-10-01 21:06:00,59.8,56.6,29.96,WNW,288,0.0,0.0,89,0.00,,,0.00,0.00,VWS V14.01,2013-10-02 01:06:00,
2013-10-01 21:11:00,59.6,56.4,29.96,WNW,288,0.0,0.0,89,0.00,,,0.00,0.00,VWS V14.01,2013-10-02 01:11:00,
2013-10-01 21:15:00,59.5,56.3,29.96,WNW,288,0.0,0.0,89,0.00,,,0.00,0.00,VWS V14.01,2013-10-02 01:15:00,
2013-10-01 21:16:00,59.5,56.3,29.96,WNW,288,0.0,0.0,89,0.00,,,0.00,0.00,VWS V14.01,2013-10-02 01:16:00,
2013-10-01 21:21:00,59.2,56.0,29.96,WNW,288,0.0,0.0,89,0.00,,,0.00,0.00,VWS V14.01,2013-10-02 01:21:00,
2013-10-01 21:26:00,59.0,55.8,29.96,WNW,288,0.0,0.0,89,0.00,,,0.00,0.00,VWS V14.01,2013-10-02 01:26:00,
2013-10-01 21:30:00,58.9,56.0,29.97,WNW,288,0.0,0.0,90,0.00,,,0.00,0.00,VWS V14.01,2013-10-02 01:30:00,
2013-10-01 21:31:00,58.9,56.0,29.97,WNW,288,0.0,0.0,90,0.00,,,0.00,0.00,VWS V14.01,2013-10-02 01:31:00,
2013-10-01 21:36:00,58.7,55.8,29.97,WNW,288,0.0,0.0,90,0.00,,,0.00,0.00,VWS V14.01,2013-10-02 01:36:00,
2013-10-01 21:41:00,58.6,55.7,29.97,WNW,288,0.0,0.0,90,0.00,,,0.00,0.00,VWS V14.01,2013-10-02 01:41:00,
2013-10-01 21:45:00,58.4,55.5,29.97,WNW,288,0.0,0.0,90,0.00,,,0.00,0.00,VWS V14.01,2013-10-02 01:45:00,
2013-10-01 21:46:00,58.4,55.5,29.97,WNW,288,0.0,0.0,90,0.00,,,0.00,0.00,VWS V14.01,2013-10-02 01:46:00,
2013-10-01 21:51:00,58.3,55.7,29.97,WNW,288,0.0,0.0,91,0.00,,,0.00,0.00,VWS V14.01,2013-10-02 01:51:00,
2013-10-01 21:56:00,58.1,55.5,29.97,WNW,288,0.0,0.0,91,0.00,,,0.00,0.00,VWS V14.01,2013-10-02 01:56:00,
2013-10-01 22:00:00,58.0,55.4,29.97,WNW,288,0.0,0.0,91,0.00,,,0.00,0.00,VWS V14.01,2013-10-02 02:00:00,
2013-10-01 22:01:00,58.0,55.4,29.97,WNW,288,0.0,0.0,91,0.00,,,0.00,0.00,VWS V14.01,2013-10-02 02:01:00,
2013-10-01 22:06:00,57.8,55.2,29.97,WNW,288,0.0,0.0,91,0.00,,,0.00,0.00,VWS V14.01,2013-10-02 02:06:00,
2013-10-01 22:11:00,57.6,55.3,29.97,WNW,288,0.0,0.0,92,0.00,,,0.00,0.00,VWS V14.01,2013-10-02 02:11:00,
2013-10-01 22:15:00,57.5,55.2,29.97,WNW,288,0.0,0.0,92,0.00,,,0.00,0.00,VWS V14.01,2013-10-02 02:15:00,
2013-10-01 22:16:00,57.5,55.2,29.97,WNW,288,0.0,0.0,92,0.00,,,0.00,0.00,VWS V14.01,2013-10-02 02:16:00,
2013-10-01 22:21:00,57.3,55.0,29.97,WNW,288,0.0,0.0,92,0.00,,,0.00,0.00,VWS V14.01,2013-10-02 02:21:00,
2013-10-01 22:26:00,57.2,54.9,29.97,WNW,288,0.0,0.0,92,0.00,,,0.00,0.00,VWS V14.01,2013-10-02 02:26:00,
2013-10-01 22:30:00,57.2,54.9,29.96,WNW,288,0.0,0.0,92,0.00,,,0.00,0.00,VWS V14.01,2013-10-02 02:30:00,
2013-10-01 22:31:00,57.2,54.9,29.96,WNW,288,0.0,0.0,92,0.00,,,0.00,0.00,VWS V14.01,2013-10-02 02:31:00,
2013-10-01 22:36:00,57.0,54.7,29.96,WNW,288,0.0,0.0,92,0.00,,,0.00,0.00,VWS V14.01,2013-10-02 02:36:00,
2013-10-01 22:41:00,56.9,54.6,29.96,WNW,288,0.0,0.0,92,0.00,,,0.00,0.00,VWS V14.01,2013-10-02 02:41:00,
2013-10-01 22:45:00,56.9,54.6,29.97,WNW,288,0.0,0.0,92,0.00,,,0.00,0.00,VWS V14.01,2013-10-02 02:45:00,
2013-10-01 22:46:00,56.9,54.6,29.97,WNW,288,0.0,0.0,92,0.00,,,0.00,0.00,VWS V14.01,2013-10-02 02:46:00,
2013-10-01 22:51:00,56.7,54.4,29.97,WNW,288,0.0,0.0,92,0.00,,,0.00,0.00,VWS V14.01,2013-10-02 02:51:00,
2013-10-01 22:56:00,56.6,54.6,29.97,WNW,288,0.0,0.0,93,0.00,,,0.00,0.00,VWS V14.01,2013-10-02 02:56:00,
2013-10-01 23:00:00,56.5,54.5,29.97,WNW,288,0.0,0.0,93,0.00,,,0.00,0.00,VWS V14.01,2013-10-02 03:00:00,
2013-10-01 23:01:00,56.5,54.5,29.97,WNW,288,0.0,0.0,93,0.00,,,0.00,0.00,VWS V14.01,2013-10-02 03:01:00,
2013-10-01 23:06:00,56.3,54.3,29.97,WNW,288,0.0,0.0,93,0.00,,,0.00,0.00,VWS V14.01,2013-10-02 03:06:00,
2013-10-01 23:11:00,56.3,54.3,29.97,WNW,288,0.0,0.0,93,0.00,,,0.00,0.00,VWS V14.01,2013-10-02 03:11:00,
2013-10-01 23:15:00,56.2,54.2,29.97,WNW,288,0.0,0.0,93,0.00,,,0.00,0.00,VWS V14.01,2013-10-02 03:15:00,
2013-10-01 23:16:00,56.2,54.2,29.97,WNW,288,0.0,0.0,93,0.00,,,0.00,0.00,VWS V14.01,2013-10-02 03:16:00,
2013-10-01 23:21:00,56.0,54.0,29.97,WNW,288,0.0,0.0,93,0.00,,,0.00,0.00,VWS V14.01,2013-10-02 03:21:00,
2013-10-01 23:26:00,56.0,54.0,29.97,WNW,288,0.0,0.0,93,0.00,,,0.00,0.00,VWS V14.01,2013-10-02 03:26:00,
2013-10-01 23:30:00,55.9,53.9,29.97,WNW,288,0.0,0.0,93,0.00,,,0.00,0.00,VWS V14.01,2013-10-02 03:30:00,
2013-10-01 23:31:00,55.9,53.9,29.97,WNW,288,0.0,0.0,93,0.00,,,0.00,0.00,VWS V14.01,2013-10-02 03:31:00,
2013-10-01 23:36:00,55.7,53.7,29.97,WNW,288,0.0,0.0,93,0.00,,,0.00,0.00,VWS V14.01,2013-10-02 03:36:00,
2013-10-01 23:41:00,55.6,53.6,29.97,WNW,288,0.0,0.0,93,0.00,,,0.00,0.00,VWS V14.01,2013-10-02 03:41:00,
2013-10-01 23:45:00,55.6,53.6,29.97,WNW,288,0.0,0.0,93,0.00,,,0.00,0.00,VWS V14.01,2013-10-02 03:45:00,
2013-10-01 23:46:00,55.6,53.6,29.97,WNW,288,0.0,0.0,93,0.00,,,0.00,0.00,VWS V14.01,2013-10-02 03:46:00,
2013-10-01 23:51:00,55.4,53.7,29.97,WNW,288,0.0,0.0,94,0.00,,,0.00,0.00,VWS V14.01,2013-10-02 03:51:00,
2013-10-01 23:56:00,55.3,53.6,29.97,WNW,288,0.0,0.0,94,0.00,,,0.00,0.00,VWS V14.01,2013-10-02 03:56:00,